• Join FlightAware (Why Join?)
  • Login
  • US Flag 
08:23PM EST


 

Airport Tracker/Info


-or-


 

Live Flight TrackerFlight Track Log ✈ DAL3926 ✈ 15-Apr-2013 ✈ KMSP - KDLH

Flight Track Log - Related Links

Times and Time Zones

All times are in EDT time to prevent confusion due to time zone crossing. See the DAL3926 flight status page for this flight to view local times or setup timezone preferences in your user account.

Time Position Orientation Groundspeed Altitude Reporting Facility
EDT Latitude Longitude Course Direction KTS MPH feet Rate Location/Type
12:29PM 44.9000 -93.2333 346° North 167 192 1,700  Level Minneapolis TRACON
12:30PM 44.9167 -93.2392 346° North 176 203 2,500 1,860 Climbing FAA TRACON SMA TRACON (SMA)
12:30PM 44.9383 -93.2436 352° North 199 229 3,200 2,400 Climbing FAA TRACON SMA TRACON (SMA)
12:30PM 44.9567 -93.2469 353° North 213 245 4,100 2,220 Climbing FAA TRACON SMA TRACON (SMA)
12:31PM 44.9764 -93.2472 359° North 227 261 4,700 2,100 Climbing FAA TRACON SMA TRACON (SMA)
12:31PM 45.0033 -93.2358 17° North 258 297 5,500 2,220 Climbing FAA TRACON SMA TRACON (SMA)
12:31PM 45.0261 -93.2242 20° North 277 319 6,200 2,100 Climbing FAA TRACON SMA TRACON (SMA)
12:32PM 45.0497 -93.2125 19° North 290 334 6,900 2,700 Climbing FAA TRACON SMA TRACON (SMA)
12:32PM 45.0797 -93.1958 21° North 299 344 8,000 2,880 Climbing FAA TRACON SMA TRACON (SMA)
12:32PM 45.1031 -93.1828 22° Northeast 297 342 8,800 2,460 Climbing FAA TRACON SMA TRACON (SMA)
12:33PM 45.1267 -93.1700 21° North 295 339 9,600 1,620 Climbing FAA TRACON SMA TRACON (SMA)
12:33PM 45.1514 -93.1581 19° North 300 345 9,900 600 Climbing FAA TRACON SMA TRACON (SMA)
12:33PM 45.1850 -93.1414 19° North 325 374 10,000 120 Climbing FAA TRACON SMA TRACON (SMA)
12:34PM 45.2136 -93.1275 19° North 348 400 10,000  Level FAA TRACON SMA TRACON (SMA)
12:34PM 45.2428 -93.1142 18° North 358 412 10,000  Level FAA TRACON SMA TRACON (SMA)
12:34PM 45.2789 -93.0958 20° North 357 411 10,000  Level FAA TRACON SMA TRACON (SMA)
12:35PM 45.3081 -93.0819 19° North 358 412 10,000  Level FAA TRACON SMA TRACON (SMA)
12:35PM 45.3369 -93.0675 19° North 358 412 10,000  Level FAA TRACON SMA TRACON (SMA)
12:35PM 45.3733 -93.0506 18° North 357 411 10,000  Level FAA TRACON SMA TRACON (SMA)
12:36PM 45.4017 -93.0339 22° Northeast 358 412 10,000  Level FAA TRACON SMA TRACON (SMA)
12:36PM 45.4306 -93.0178 21° North 359 413 10,000  Level FAA TRACON SMA TRACON (SMA)
12:36PM 45.4661 -92.9969 22° Northeast 359 413 10,000  Level FAA TRACON SMA TRACON (SMA)
12:37PM 45.4950 -92.9811 21° North 361 415 10,000  Level FAA TRACON SMA TRACON (SMA)
12:37PM 45.5236 -92.9647 22° Northeast 360 414 10,000  Level FAA TRACON SMA TRACON (SMA)
12:37PM 45.5594 -92.9433 23° Northeast 361 415 10,000  Level FAA TRACON SMA TRACON (SMA)
12:38PM 45.5889 -92.9272 21° North 363 418 10,000  Level FAA TRACON SMA TRACON (SMA)
12:38PM 45.6175 -92.9111 21° North 361 415 10,000  Level FAA TRACON SMA TRACON (SMA)
12:38PM 45.6536 -92.8897 22° Northeast 363 418 10,000  Level FAA TRACON SMA TRACON (SMA)
12:39PM 45.6825 -92.8731 22° Northeast 364 419 10,000 120 Level FAA TRACON SMA TRACON (SMA)
12:39PM 45.7111 -92.8561 22° Northeast 361 415 10,100 120 Climbing FAA TRACON SMA TRACON (SMA)
12:39PM 45.7397 -92.8411 20° North 358 412 10,100  Level FAA TRACON SMA TRACON (SMA)
12:40PM 45.7761 -92.8219 20° North 359 413 10,100  Level FAA TRACON SMA TRACON (SMA)
12:40PM 45.8044 -92.8044 23° Northeast 360 414 10,100  Level FAA TRACON SMA TRACON (SMA)
12:40PM 45.8328 -92.7864 24° Northeast 361 415 10,100 60 Level FAA TRACON SMA TRACON (SMA)
12:41PM 45.9100 -92.7381 24° Northeast 357 411 10,200 -60 Climbing Minneapolis Center
12:42PM 46.0028 -92.6825 23° Northeast 360 414 10,000 -120 Descending Minneapolis Center
12:43PM 46.0969 -92.6272 22° Northeast 364 419 10,000  Level Minneapolis Center
12:44PM 46.1894 -92.5678 24° Northeast 366 421 10,000 -180 Level Minneapolis Center
12:45PM 46.2756 -92.4722 37° Northeast 345 397 9,700 -1,020 Descending Minneapolis Center
12:46PM 46.3447 -92.3997 36° Northeast 320 368 8,000 -1,920 Descending Minneapolis Center
12:47PM 46.3972 -92.3400 38° Northeast 310 357 5,800 -2,100 Descending Minneapolis Center
12:48PM 46.4800 -92.2578 34° Northeast 306 352 3,700 -1,320 Descending Minneapolis Center
12:49PM 46.5461 -92.1925 34° Northeast 300 345 3,100 -300 Descending Minneapolis Center
12:50PM 46.6086 -92.1269 36° Northeast 291 335 3,200  Climbing Minneapolis Center
12:51PM 46.6833 -92.0467 36° Northeast 285 328 3,100 -60 Descending Minneapolis Center
12:52PM 46.7453 -91.9803 36° Northeast 282 325 3,100  Level Minneapolis Center
12:53PM 46.7983 -91.9431 26° Northeast 258 297 3,100  Level Minneapolis Center
12:54PM 46.8358 -91.9867 322° Northwest 213 245 3,100  Level Minneapolis Center
12:55PM 46.8383 -92.0583 273° West 187 215 3,100 -420 Level Minneapolis Center
12:57PM 46.8406 -92.1228 273° West 174 200 2,300 -780 Descending Minneapolis Center
12:58PM 46.8333 -92.1833 326° Northwest  Level FlightAware Approximate